KEFT

Monroe Municipal Airport

Monroe, Wisconsin, USA
METAR KEFT 181615Z AUTO 24016G19KT 3SM BR OVC006 00/00 A2990 RMK AO2
Observed Flight Rules
Dec-18 @ 16:15 UTC (28 minutes ago) Instrument Flight Rules
Wind Visibility Clouds Conditions
240° at 16 knots
 Gusting to 19 knots
3 miles
  • Overcast at 600' AGL
  • Mist
Temperatures Readings
Current 0°C / 32°F
Dewpoint 0°C / 32°F
Humidity 100%
Altimeter 29.9" Hg
Pressure 1013 hPa
Elevation 331
METAR KEFT 181615Z AUTO 24016G19KT 3SM BR OVC006 00/00 A2990 RMK AO2
Observed Flight Rules
Dec-18 @ 16:15 UTC
(28 minutes ago)
IFR
Wind Visibility
240° at 16 knots
 Gusting to 19 knots
3 miles
Clouds
  • Overcast at 600' AGL
Conditions
  • Mist
Temperature Dewpoint
0°C / 32°F 0°C / 32°F
Humidity Altimeter Pressure
100% 29.9" Hg 1013 hPa